sensor_id;sensor_type;location;lat;lon;timestamp;temperature;humidity
21259;DHT22;10787;53.364;-1.480;2023-03-13T00:02:11;10.20;99.90
21259;DHT22;10787;53.364;-1.480;2023-03-13T00:04:37;10.20;99.90
21259;DHT22;10787;53.364;-1.480;2023-03-13T00:07:03;10.20;99.90
21259;DHT22;10787;53.364;-1.480;2023-03-13T00:09:29;10.20;99.90
21259;DHT22;10787;53.364;-1.480;2023-03-13T00:11:55;10.30;99.90
21259;DHT22;10787;53.364;-1.480;2023-03-13T00:14:21;10.30;99.90
21259;DHT22;10787;53.364;-1.480;2023-03-13T00:16:46;10.30;99.90
21259;DHT22;10787;53.364;-1.480;2023-03-13T00:19:14;10.40;99.90
21259;DHT22;10787;53.364;-1.480;2023-03-13T00:21:40;10.50;99.90
21259;DHT22;10787;53.364;-1.480;2023-03-13T00:24:06;10.50;99.90
21259;DHT22;10787;53.364;-1.480;2023-03-13T00:26:33;10.50;99.90
21259;DHT22;10787;53.364;-1.480;2023-03-13T00:28:59;10.50;99.90
21259;DHT22;10787;53.364;-1.480;2023-03-13T00:31:27;10.50;99.90
21259;DHT22;10787;53.364;-1.480;2023-03-13T00:33:58;10.40;99.90
21259;DHT22;10787;53.364;-1.480;2023-03-13T00:36:27;10.50;99.90
21259;DHT22;10787;53.364;-1.480;2023-03-13T00:38:53;10.60;99.90
21259;DHT22;10787;53.364;-1.480;2023-03-13T00:41:25;10.60;99.90
21259;DHT22;10787;53.364;-1.480;2023-03-13T00:43:51;10.60;99.90
21259;DHT22;10787;53.364;-1.480;2023-03-13T00:46:20;10.70;99.90
21259;DHT22;10787;53.364;-1.480;2023-03-13T00:48:47;10.80;99.90
21259;DHT22;10787;53.364;-1.480;2023-03-13T00:51:14;10.80;99.90
21259;DHT22;10787;53.364;-1.480;2023-03-13T00:53:40;10.80;99.90
21259;DHT22;10787;53.364;-1.480;2023-03-13T00:56:14;10.80;99.90
21259;DHT22;10787;53.364;-1.480;2023-03-13T00:58:42;10.90;99.90
21259;DHT22;10787;53.364;-1.480;2023-03-13T01:01:35;10.90;99.90
21259;DHT22;10787;53.364;-1.480;2023-03-13T01:04:04;10.90;99.90
21259;DHT22;10787;53.364;-1.480;2023-03-13T01:06:33;10.90;99.90
21259;DHT22;10787;53.364;-1.480;2023-03-13T01:09:00;10.90;99.90
21259;DHT22;10787;53.364;-1.480;2023-03-13T01:11:28;10.90;99.90
21259;DHT22;10787;53.364;-1.480;2023-03-13T01:13:55;10.80;99.90
21259;DHT22;10787;53.364;-1.480;2023-03-13T01:16:22;10.80;99.90
21259;DHT22;10787;53.364;-1.480;2023-03-13T01:18:50;10.80;99.90
21259;DHT22;10787;53.364;-1.480;2023-03-13T01:21:17;10.80;99.90
21259;DHT22;10787;53.364;-1.480;2023-03-13T01:23:44;10.80;99.90
21259;DHT22;10787;53.364;-1.480;2023-03-13T01:26:10;10.90;99.90
21259;DHT22;10787;53.364;-1.480;2023-03-13T01:28:36;10.90;99.90
21259;DHT22;10787;53.364;-1.480;2023-03-13T01:31:24;10.90;99.90
21259;DHT22;10787;53.364;-1.480;2023-03-13T01:33:53;10.90;99.90
21259;DHT22;10787;53.364;-1.480;2023-03-13T01:36:19;10.90;99.90
21259;DHT22;10787;53.364;-1.480;2023-03-13T01:38:49;10.90;99.90
21259;DHT22;10787;53.364;-1.480;2023-03-13T01:41:16;11.00;99.90
21259;DHT22;10787;53.364;-1.480;2023-03-13T01:43:44;11.00;99.90
21259;DHT22;10787;53.364;-1.480;2023-03-13T01:46:18;11.00;99.90
21259;DHT22;10787;53.364;-1.480;2023-03-13T01:51:38;11.00;99.90
21259;DHT22;10787;53.364;-1.480;2023-03-13T01:57:08;10.90;99.90
21259;DHT22;10787;53.364;-1.480;2023-03-13T01:59:46;11.00;99.90
21259;DHT22;10787;53.364;-1.480;2023-03-13T02:02:13;11.10;99.90
21259;DHT22;10787;53.364;-1.480;2023-03-13T02:04:47;11.10;99.90
21259;DHT22;10787;53.364;-1.480;2023-03-13T02:07:18;11.10;99.90
21259;DHT22;10787;53.364;-1.480;2023-03-13T02:09:49;11.10;99.90
21259;DHT22;10787;53.364;-1.480;2023-03-13T02:12:37;11.00;99.90
21259;DHT22;10787;53.364;-1.480;2023-03-13T02:15:20;11.10;99.90
21259;DHT22;10787;53.364;-1.480;2023-03-13T02:17:48;11.10;99.90
21259;DHT22;10787;53.364;-1.480;2023-03-13T02:20:17;11.00;99.90
21259;DHT22;10787;53.364;-1.480;2023-03-13T02:25:48;11.10;99.90
21259;DHT22;10787;53.364;-1.480;2023-03-13T02:28:25;11.20;99.90
21259;DHT22;10787;53.364;-1.480;2023-03-13T02:30:54;11.30;99.90
21259;DHT22;10787;53.364;-1.480;2023-03-13T02:33:20;11.30;99.90
21259;DHT22;10787;53.364;-1.480;2023-03-13T02:35:47;11.30;99.90
21259;DHT22;10787;53.364;-1.480;2023-03-13T02:38:18;11.40;99.90
21259;DHT22;10787;53.364;-1.480;2023-03-13T02:40:46;11.40;99.90
21259;DHT22;10787;53.364;-1.480;2023-03-13T02:43:26;11.40;99.90
21259;DHT22;10787;53.364;-1.480;2023-03-13T02:46:23;11.40;99.90
21259;DHT22;10787;53.364;-1.480;2023-03-13T02:49:20;11.40;99.90
21259;DHT22;10787;53.364;-1.480;2023-03-13T02:51:46;11.40;99.90
21259;DHT22;10787;53.364;-1.480;2023-03-13T02:54:17;11.40;99.90
21259;DHT22;10787;53.364;-1.480;2023-03-13T02:56:46;11.40;99.90
21259;DHT22;10787;53.364;-1.480;2023-03-13T02:59:13;11.40;99.90
21259;DHT22;10787;53.364;-1.480;2023-03-13T03:01:39;11.50;99.90
21259;DHT22;10787;53.364;-1.480;2023-03-13T03:04:05;11.50;99.90
21259;DHT22;10787;53.364;-1.480;2023-03-13T03:06:31;11.40;99.90
21259;DHT22;10787;53.364;-1.480;2023-03-13T03:08:57;11.40;99.90
21259;DHT22;10787;53.364;-1.480;2023-03-13T03:11:23;11.40;99.90
21259;DHT22;10787;53.364;-1.480;2023-03-13T03:13:49;11.30;99.90
21259;DHT22;10787;53.364;-1.480;2023-03-13T03:16:15;11.30;99.90
21259;DHT22;10787;53.364;-1.480;2023-03-13T03:18:43;11.30;99.90
21259;DHT22;10787;53.364;-1.480;2023-03-13T03:21:09;11.30;99.90
21259;DHT22;10787;53.364;-1.480;2023-03-13T03:23:35;11.30;99.90
21259;DHT22;10787;53.364;-1.480;2023-03-13T03:26:02;11.30;99.90
21259;DHT22;10787;53.364;-1.480;2023-03-13T03:28:28;11.30;99.90
21259;DHT22;10787;53.364;-1.480;2023-03-13T03:30:54;11.30;99.90
21259;DHT22;10787;53.364;-1.480;2023-03-13T03:33:22;11.40;99.90
21259;DHT22;10787;53.364;-1.480;2023-03-13T03:35:48;11.40;99.90
21259;DHT22;10787;53.364;-1.480;2023-03-13T03:38:14;11.40;99.90
21259;DHT22;10787;53.364;-1.480;2023-03-13T03:40:40;11.40;99.90
21259;DHT22;10787;53.364;-1.480;2023-03-13T03:43:06;11.40;99.90
21259;DHT22;10787;53.364;-1.480;2023-03-13T03:45:31;11.30;99.90
21259;DHT22;10787;53.364;-1.480;2023-03-13T03:47:57;11.30;99.90
21259;DHT22;10787;53.364;-1.480;2023-03-13T03:50:25;11.30;99.90
21259;DHT22;10787;53.364;-1.480;2023-03-13T03:52:51;11.30;99.90
21259;DHT22;10787;53.364;-1.480;2023-03-13T03:55:17;11.30;99.90
21259;DHT22;10787;53.364;-1.480;2023-03-13T03:57:43;11.30;99.90
21259;DHT22;10787;53.364;-1.480;2023-03-13T04:00:10;11.20;99.90
21259;DHT22;10787;53.364;-1.480;2023-03-13T04:02:41;11.30;99.90
21259;DHT22;10787;53.364;-1.480;2023-03-13T04:05:07;11.20;99.90
21259;DHT22;10787;53.364;-1.480;2023-03-13T04:07:33;11.20;99.90
21259;DHT22;10787;53.364;-1.480;2023-03-13T04:09:58;11.20;99.90
21259;DHT22;10787;53.364;-1.480;2023-03-13T04:12:24;11.20;99.90
21259;DHT22;10787;53.364;-1.480;2023-03-13T04:14:50;11.20;99.90
21259;DHT22;10787;53.364;-1.480;2023-03-13T04:17:16;11.30;99.90
21259;DHT22;10787;53.364;-1.480;2023-03-13T04:19:41;11.30;99.90
21259;DHT22;10787;53.364;-1.480;2023-03-13T04:22:07;11.30;99.90
21259;DHT22;10787;53.364;-1.480;2023-03-13T04:24:33;11.30;99.90
21259;DHT22;10787;53.364;-1.480;2023-03-13T04:26:59;11.30;99.90
21259;DHT22;10787;53.364;-1.480;2023-03-13T04:29:26;11.30;99.90
21259;DHT22;10787;53.364;-1.480;2023-03-13T04:31:51;11.30;99.90
21259;DHT22;10787;53.364;-1.480;2023-03-13T04:34:17;11.40;99.90
21259;DHT22;10787;53.364;-1.480;2023-03-13T04:36:43;11.40;99.90
21259;DHT22;10787;53.364;-1.480;2023-03-13T04:39:09;11.40;99.90
21259;DHT22;10787;53.364;-1.480;2023-03-13T04:41:34;11.30;99.90
21259;DHT22;10787;53.364;-1.480;2023-03-13T04:44:00;11.40;99.90
21259;DHT22;10787;53.364;-1.480;2023-03-13T04:46:26;11.40;99.90
21259;DHT22;10787;53.364;-1.480;2023-03-13T04:48:51;11.30;99.90
21259;DHT22;10787;53.364;-1.480;2023-03-13T04:51:17;11.30;99.90
21259;DHT22;10787;53.364;-1.480;2023-03-13T04:53:43;11.20;99.90
21259;DHT22;10787;53.364;-1.480;2023-03-13T04:56:20;11.20;99.90
21259;DHT22;10787;53.364;-1.480;2023-03-13T04:58:46;11.10;99.90
21259;DHT22;10787;53.364;-1.480;2023-03-13T05:01:12;11.00;99.90
21259;DHT22;10787;53.364;-1.480;2023-03-13T05:03:37;11.00;99.90
21259;DHT22;10787;53.364;-1.480;2023-03-13T05:06:03;11.00;99.90
21259;DHT22;10787;53.364;-1.480;2023-03-13T05:08:29;11.00;99.90
21259;DHT22;10787;53.364;-1.480;2023-03-13T05:10:55;11.00;99.90
21259;DHT22;10787;53.364;-1.480;2023-03-13T05:13:20;11.10;99.90
21259;DHT22;10787;53.364;-1.480;2023-03-13T05:15:46;11.00;99.90
21259;DHT22;10787;53.364;-1.480;2023-03-13T05:18:12;11.00;99.90
21259;DHT22;10787;53.364;-1.480;2023-03-13T05:20:37;11.10;99.90
21259;DHT22;10787;53.364;-1.480;2023-03-13T05:23:03;11.10;99.90
21259;DHT22;10787;53.364;-1.480;2023-03-13T05:25:29;11.10;99.90
21259;DHT22;10787;53.364;-1.480;2023-03-13T05:27:55;11.20;99.90
21259;DHT22;10787;53.364;-1.480;2023-03-13T05:30:20;11.20;99.90
21259;DHT22;10787;53.364;-1.480;2023-03-13T05:32:46;11.20;99.90
21259;DHT22;10787;53.364;-1.480;2023-03-13T05:35:12;11.20;99.90
21259;DHT22;10787;53.364;-1.480;2023-03-13T05:37:38;11.20;99.90
21259;DHT22;10787;53.364;-1.480;2023-03-13T05:40:04;11.20;99.90
21259;DHT22;10787;53.364;-1.480;2023-03-13T05:42:30;11.20;99.90
21259;DHT22;10787;53.364;-1.480;2023-03-13T05:44:56;11.30;99.90
21259;DHT22;10787;53.364;-1.480;2023-03-13T05:47:21;11.20;99.90
21259;DHT22;10787;53.364;-1.480;2023-03-13T05:49:47;11.20;99.90
21259;DHT22;10787;53.364;-1.480;2023-03-13T05:52:13;11.20;99.90
21259;DHT22;10787;53.364;-1.480;2023-03-13T05:54:39;11.30;99.90
21259;DHT22;10787;53.364;-1.480;2023-03-13T05:57:04;11.30;99.90
21259;DHT22;10787;53.364;-1.480;2023-03-13T05:59:30;11.30;99.90
21259;DHT22;10787;53.364;-1.480;2023-03-13T06:01:56;11.30;99.90
21259;DHT22;10787;53.364;-1.480;2023-03-13T06:04:21;11.20;99.90
21259;DHT22;10787;53.364;-1.480;2023-03-13T06:06:47;11.20;99.90
21259;DHT22;10787;53.364;-1.480;2023-03-13T06:09:13;11.20;99.90
21259;DHT22;10787;53.364;-1.480;2023-03-13T06:11:39;11.10;99.90
21259;DHT22;10787;53.364;-1.480;2023-03-13T06:14:04;11.10;99.90
21259;DHT22;10787;53.364;-1.480;2023-03-13T06:16:30;11.10;99.90
21259;DHT22;10787;53.364;-1.480;2023-03-13T06:18:57;11.10;99.90
21259;DHT22;10787;53.364;-1.480;2023-03-13T06:21:22;11.20;99.90
21259;DHT22;10787;53.364;-1.480;2023-03-13T06:23:48;11.20;99.90
21259;DHT22;10787;53.364;-1.480;2023-03-13T06:26:14;11.10;99.90
21259;DHT22;10787;53.364;-1.480;2023-03-13T06:28:40;11.10;99.90
21259;DHT22;10787;53.364;-1.480;2023-03-13T06:31:06;11.20;99.90
21259;DHT22;10787;53.364;-1.480;2023-03-13T06:33:31;11.40;99.90
21259;DHT22;10787;53.364;-1.480;2023-03-13T06:35:59;11.40;99.90
21259;DHT22;10787;53.364;-1.480;2023-03-13T06:38:26;11.40;99.90
21259;DHT22;10787;53.364;-1.480;2023-03-13T06:40:52;11.30;99.90
21259;DHT22;10787;53.364;-1.480;2023-03-13T06:43:18;11.10;99.90
21259;DHT22;10787;53.364;-1.480;2023-03-13T06:45:44;10.70;99.90
21259;DHT22;10787;53.364;-1.480;2023-03-13T06:48:10;10.40;99.90
21259;DHT22;10787;53.364;-1.480;2023-03-13T06:50:39;10.20;99.90
21259;DHT22;10787;53.364;-1.480;2023-03-13T06:53:06;10.00;99.90
21259;DHT22;10787;53.364;-1.480;2023-03-13T06:55:32;9.90;99.90
21259;DHT22;10787;53.364;-1.480;2023-03-13T06:57:58;9.80;99.90
21259;DHT22;10787;53.364;-1.480;2023-03-13T07:00:24;9.70;99.90
21259;DHT22;10787;53.364;-1.480;2023-03-13T07:02:50;9.70;99.90
21259;DHT22;10787;53.364;-1.480;2023-03-13T07:05:16;9.60;99.90
21259;DHT22;10787;53.364;-1.480;2023-03-13T07:07:42;9.60;99.90
21259;DHT22;10787;53.364;-1.480;2023-03-13T07:10:09;9.60;99.90
21259;DHT22;10787;53.364;-1.480;2023-03-13T07:12:36;9.60;99.90
21259;DHT22;10787;53.364;-1.480;2023-03-13T07:15:03;9.70;99.90
21259;DHT22;10787;53.364;-1.480;2023-03-13T07:17:29;9.70;99.90
21259;DHT22;10787;53.364;-1.480;2023-03-13T07:19:55;9.70;99.90
21259;DHT22;10787;53.364;-1.480;2023-03-13T07:22:20;9.70;99.90
21259;DHT22;10787;53.364;-1.480;2023-03-13T07:24:47;9.70;99.90
21259;DHT22;10787;53.364;-1.480;2023-03-13T07:27:12;9.70;99.90
21259;DHT22;10787;53.364;-1.480;2023-03-13T07:29:38;9.80;99.90
21259;DHT22;10787;53.364;-1.480;2023-03-13T07:32:04;9.80;99.90
21259;DHT22;10787;53.364;-1.480;2023-03-13T07:34:30;9.90;99.90
21259;DHT22;10787;53.364;-1.480;2023-03-13T07:36:56;10.00;99.90
21259;DHT22;10787;53.364;-1.480;2023-03-13T07:39:22;10.00;99.90
21259;DHT22;10787;53.364;-1.480;2023-03-13T07:41:47;9.90;99.90
21259;DHT22;10787;53.364;-1.480;2023-03-13T07:44:13;9.80;99.90
21259;DHT22;10787;53.364;-1.480;2023-03-13T07:46:39;9.80;99.90
21259;DHT22;10787;53.364;-1.480;2023-03-13T07:49:04;9.70;99.90
21259;DHT22;10787;53.364;-1.480;2023-03-13T07:51:30;9.60;99.90
21259;DHT22;10787;53.364;-1.480;2023-03-13T07:53:56;9.50;99.90
21259;DHT22;10787;53.364;-1.480;2023-03-13T07:56:22;9.50;99.90
21259;DHT22;10787;53.364;-1.480;2023-03-13T07:58:49;9.40;99.90
21259;DHT22;10787;53.364;-1.480;2023-03-13T08:01:21;9.40;99.90
21259;DHT22;10787;53.364;-1.480;2023-03-13T08:03:47;9.40;99.90
21259;DHT22;10787;53.364;-1.480;2023-03-13T08:06:21;9.30;99.90
21259;DHT22;10787;53.364;-1.480;2023-03-13T08:08:48;9.30;99.90
21259;DHT22;10787;53.364;-1.480;2023-03-13T08:11:16;9.30;99.90
21259;DHT22;10787;53.364;-1.480;2023-03-13T08:13:43;9.30;99.90
21259;DHT22;10787;53.364;-1.480;2023-03-13T08:16:14;9.40;99.90
21259;DHT22;10787;53.364;-1.480;2023-03-13T08:18:46;9.50;99.90
21259;DHT22;10787;53.364;-1.480;2023-03-13T08:21:32;9.60;99.90
21259;DHT22;10787;53.364;-1.480;2023-03-13T08:24:01;9.70;99.90
21259;DHT22;10787;53.364;-1.480;2023-03-13T08:26:31;9.80;99.90
21259;DHT22;10787;53.364;-1.480;2023-03-13T08:28:59;9.80;99.90
21259;DHT22;10787;53.364;-1.480;2023-03-13T08:31:30;9.90;99.90
21259;DHT22;10787;53.364;-1.480;2023-03-13T08:33:57;10.00;99.90
21259;DHT22;10787;53.364;-1.480;2023-03-13T08:36:28;10.10;99.90
21259;DHT22;10787;53.364;-1.480;2023-03-13T08:38:56;10.10;99.90
21259;DHT22;10787;53.364;-1.480;2023-03-13T08:41:25;10.20;99.90
21259;DHT22;10787;53.364;-1.480;2023-03-13T08:43:52;10.30;99.90
21259;DHT22;10787;53.364;-1.480;2023-03-13T08:46:18;10.30;99.90
21259;DHT22;10787;53.364;-1.480;2023-03-13T08:48:47;10.40;99.90
21259;DHT22;10787;53.364;-1.480;2023-03-13T08:51:14;10.40;99.90
21259;DHT22;10787;53.364;-1.480;2023-03-13T08:53:41;10.30;99.90
21259;DHT22;10787;53.364;-1.480;2023-03-13T08:56:09;10.30;99.90
21259;DHT22;10787;53.364;-1.480;2023-03-13T08:58:35;10.20;99.90
21259;DHT22;10787;53.364;-1.480;2023-03-13T09:01:02;10.20;99.90
21259;DHT22;10787;53.364;-1.480;2023-03-13T09:03:28;10.20;99.90
21259;DHT22;10787;53.364;-1.480;2023-03-13T09:05:56;10.20;99.90
21259;DHT22;10787;53.364;-1.480;2023-03-13T09:08:22;10.20;99.90
21259;DHT22;10787;53.364;-1.480;2023-03-13T09:11:00;10.30;99.90
21259;DHT22;10787;53.364;-1.480;2023-03-13T09:13:28;10.30;99.90
21259;DHT22;10787;53.364;-1.480;2023-03-13T09:16:05;10.30;99.90
21259;DHT22;10787;53.364;-1.480;2023-03-13T09:18:32;10.30;99.90
21259;DHT22;10787;53.364;-1.480;2023-03-13T09:20:58;10.30;99.90
21259;DHT22;10787;53.364;-1.480;2023-03-13T09:23:24;10.20;99.90
21259;DHT22;10787;53.364;-1.480;2023-03-13T09:25:55;10.20;99.90
21259;DHT22;10787;53.364;-1.480;2023-03-13T09:28:22;10.30;99.90
21259;DHT22;10787;53.364;-1.480;2023-03-13T09:30:48;10.40;99.90
21259;DHT22;10787;53.364;-1.480;2023-03-13T09:33:18;10.40;99.90
21259;DHT22;10787;53.364;-1.480;2023-03-13T09:35:45;10.40;99.90
21259;DHT22;10787;53.364;-1.480;2023-03-13T09:38:19;10.30;99.90
21259;DHT22;10787;53.364;-1.480;2023-03-13T09:40:47;10.30;99.90
21259;DHT22;10787;53.364;-1.480;2023-03-13T09:46:05;10.40;99.90
21259;DHT22;10787;53.364;-1.480;2023-03-13T09:48:53;10.60;99.90
21259;DHT22;10787;53.364;-1.480;2023-03-13T09:51:28;10.70;99.90
21259;DHT22;10787;53.364;-1.480;2023-03-13T09:56:59;10.80;99.90
21259;DHT22;10787;53.364;-1.480;2023-03-13T09:59:40;10.80;99.90
21259;DHT22;10787;53.364;-1.480;2023-03-13T10:02:33;10.80;99.90
21259;DHT22;10787;53.364;-1.480;2023-03-13T10:05:38;10.80;99.90
21259;DHT22;10787;53.364;-1.480;2023-03-13T10:08:16;10.80;99.90
21259;DHT22;10787;53.364;-1.480;2023-03-13T10:10:45;10.80;99.90
21259;DHT22;10787;53.364;-1.480;2023-03-13T10:13:27;10.80;99.90
21259;DHT22;10787;53.364;-1.480;2023-03-13T10:15:59;10.80;99.90
21259;DHT22;10787;53.364;-1.480;2023-03-13T10:18:26;10.70;99.90
21259;DHT22;10787;53.364;-1.480;2023-03-13T10:20:55;10.80;99.90
21259;DHT22;10787;53.364;-1.480;2023-03-13T10:23:46;10.90;99.90
21259;DHT22;10787;53.364;-1.480;2023-03-13T10:26:33;11.00;99.90
21259;DHT22;10787;53.364;-1.480;2023-03-13T10:29:26;11.10;99.90
21259;DHT22;10787;53.364;-1.480;2023-03-13T10:31:59;11.20;99.90
21259;DHT22;10787;53.364;-1.480;2023-03-13T10:34:27;11.10;99.90
21259;DHT22;10787;53.364;-1.480;2023-03-13T10:37:01;11.20;99.90
21259;DHT22;10787;53.364;-1.480;2023-03-13T10:39:28;11.30;99.90
21259;DHT22;10787;53.364;-1.480;2023-03-13T10:42:21;11.40;99.90
21259;DHT22;10787;53.364;-1.480;2023-03-13T10:44:48;11.50;99.90
21259;DHT22;10787;53.364;-1.480;2023-03-13T10:47:14;11.50;99.90
21259;DHT22;10787;53.364;-1.480;2023-03-13T10:49:54;11.60;99.90
21259;DHT22;10787;53.364;-1.480;2023-03-13T10:55:17;11.60;99.90
21259;DHT22;10787;53.364;-1.480;2023-03-13T11:00:40;11.50;99.90
21259;DHT22;10787;53.364;-1.480;2023-03-13T11:03:21;11.30;99.90
21259;DHT22;10787;53.364;-1.480;2023-03-13T11:05:57;11.20;99.90
21259;DHT22;10787;53.364;-1.480;2023-03-13T11:08:41;11.10;99.90
21259;DHT22;10787;53.364;-1.480;2023-03-13T11:11:17;11.00;99.90
21259;DHT22;10787;53.364;-1.480;2023-03-13T11:13:44;11.10;99.90
21259;DHT22;10787;53.364;-1.480;2023-03-13T11:24:27;11.40;99.90
21259;DHT22;10787;53.364;-1.480;2023-03-13T11:32:54;11.50;99.90
21259;DHT22;10787;53.364;-1.480;2023-03-13T11:38:26;11.50;99.90
21259;DHT22;10787;53.364;-1.480;2023-03-13T11:54:40;11.90;99.90
21259;DHT22;10787;53.364;-1.480;2023-03-13T11:57:27;11.80;99.90
21259;DHT22;10787;53.364;-1.480;2023-03-13T12:00:18;11.80;99.90
21259;DHT22;10787;53.364;-1.480;2023-03-13T12:05:21;11.20;99.90
21259;DHT22;10787;53.364;-1.480;2023-03-13T12:08:02;11.00;99.90
21259;DHT22;10787;53.364;-1.480;2023-03-13T12:10:42;11.00;99.90
21259;DHT22;10787;53.364;-1.480;2023-03-13T12:13:21;10.80;99.90
21259;DHT22;10787;53.364;-1.480;2023-03-13T12:15:51;10.70;99.90
21259;DHT22;10787;53.364;-1.480;2023-03-13T12:18:31;10.80;99.90
21259;DHT22;10787;53.364;-1.480;2023-03-13T12:21:37;10.90;99.90
21259;DHT22;10787;53.364;-1.480;2023-03-13T12:26:59;10.70;99.90
21259;DHT22;10787;53.364;-1.480;2023-03-13T12:29:57;10.50;99.90
21259;DHT22;10787;53.364;-1.480;2023-03-13T12:32:47;10.30;99.90
21259;DHT22;10787;53.364;-1.480;2023-03-13T12:35:40;10.20;99.90
21259;DHT22;10787;53.364;-1.480;2023-03-13T12:38:20;10.00;99.90
21259;DHT22;10787;53.364;-1.480;2023-03-13T12:41:39;9.90;99.90
21259;DHT22;10787;53.364;-1.480;2023-03-13T12:43:51;9.80;99.90
21259;DHT22;10787;53.364;-1.480;2023-03-13T12:46:35;9.80;99.90
21259;DHT22;10787;53.364;-1.480;2023-03-13T12:49:11;9.80;99.90
21259;DHT22;10787;53.364;-1.480;2023-03-13T12:57:33;9.90;99.90
21259;DHT22;10787;53.364;-1.480;2023-03-13T13:00:17;10.00;99.90
21259;DHT22;10787;53.364;-1.480;2023-03-13T13:02:45;10.00;99.90
21259;DHT22;10787;53.364;-1.480;2023-03-13T13:05:19;9.90;99.90
21259;DHT22;10787;53.364;-1.480;2023-03-13T13:08:22;9.80;99.90
21259;DHT22;10787;53.364;-1.480;2023-03-13T13:10:48;9.80;99.90
21259;DHT22;10787;53.364;-1.480;2023-03-13T13:15:57;9.70;99.90
21259;DHT22;10787;53.364;-1.480;2023-03-13T13:18:29;9.70;99.90
21259;DHT22;10787;53.364;-1.480;2023-03-13T13:37:00;9.60;99.90
21259;DHT22;10787;53.364;-1.480;2023-03-13T13:39:34;9.60;99.90
21259;DHT22;10787;53.364;-1.480;2023-03-13T13:47:45;9.60;99.90
21259;DHT22;10787;53.364;-1.480;2023-03-13T13:50:25;9.60;99.90
21259;DHT22;10787;53.364;-1.480;2023-03-13T13:52:51;9.60;99.90
21259;DHT22;10787;53.364;-1.480;2023-03-13T13:58:20;9.60;99.90
21259;DHT22;10787;53.364;-1.480;2023-03-13T14:00:54;9.60;99.90
21259;DHT22;10787;53.364;-1.480;2023-03-13T14:03:40;9.60;99.90
21259;DHT22;10787;53.364;-1.480;2023-03-13T14:06:28;9.70;99.90
21259;DHT22;10787;53.364;-1.480;2023-03-13T14:09:10;9.80;99.90
21259;DHT22;10787;53.364;-1.480;2023-03-13T14:11:38;9.90;99.90
21259;DHT22;10787;53.364;-1.480;2023-03-13T14:14:20;9.90;99.90
21259;DHT22;10787;53.364;-1.480;2023-03-13T14:16:50;10.20;99.90
21259;DHT22;10787;53.364;-1.480;2023-03-13T14:19:27;10.50;99.90
21259;DHT22;10787;53.364;-1.480;2023-03-13T14:22:06;10.60;99.90
21259;DHT22;10787;53.364;-1.480;2023-03-13T14:24:33;10.70;99.90
21259;DHT22;10787;53.364;-1.480;2023-03-13T14:26:59;10.90;99.90
21259;DHT22;10787;53.364;-1.480;2023-03-13T14:29:25;11.00;99.90
21259;DHT22;10787;53.364;-1.480;2023-03-13T14:32:00;11.30;99.90
21259;DHT22;10787;53.364;-1.480;2023-03-13T14:34:26;11.70;99.90
21259;DHT22;10787;53.364;-1.480;2023-03-13T14:36:55;11.70;99.90
21259;DHT22;10787;53.364;-1.480;2023-03-13T14:39:37;11.50;99.90
21259;DHT22;10787;53.364;-1.480;2023-03-13T14:42:17;11.40;99.90
21259;DHT22;10787;53.364;-1.480;2023-03-13T14:44:44;11.20;99.90
21259;DHT22;10787;53.364;-1.480;2023-03-13T14:47:29;11.00;99.90
21259;DHT22;10787;53.364;-1.480;2023-03-13T14:50:10;10.90;99.90
21259;DHT22;10787;53.364;-1.480;2023-03-13T14:52:42;10.50;99.90
21259;DHT22;10787;53.364;-1.480;2023-03-13T14:55:26;10.30;99.90
21259;DHT22;10787;53.364;-1.480;2023-03-13T14:57:58;10.20;99.90
21259;DHT22;10787;53.364;-1.480;2023-03-13T15:00:39;10.10;99.90
21259;DHT22;10787;53.364;-1.480;2023-03-13T15:08:33;9.90;99.90
21259;DHT22;10787;53.364;-1.480;2023-03-13T15:11:00;9.80;99.90
21259;DHT22;10787;53.364;-1.480;2023-03-13T15:13:34;9.70;99.90
21259;DHT22;10787;53.364;-1.480;2023-03-13T15:16:02;9.60;99.90
21259;DHT22;10787;53.364;-1.480;2023-03-13T15:18:35;9.50;99.90
21259;DHT22;10787;53.364;-1.480;2023-03-13T15:23:39;7.70;99.90
21259;DHT22;10787;53.364;-1.480;2023-03-13T15:26:05;7.70;99.90
21259;DHT22;10787;53.364;-1.480;2023-03-13T15:28:31;7.80;99.90
21259;DHT22;10787;53.364;-1.480;2023-03-13T15:30:59;7.70;99.90
21259;DHT22;10787;53.364;-1.480;2023-03-13T15:33:27;7.50;99.90
21259;DHT22;10787;53.364;-1.480;2023-03-13T15:35:54;7.60;99.90
21259;DHT22;10787;53.364;-1.480;2023-03-13T15:38:25;7.60;99.90
21259;DHT22;10787;53.364;-1.480;2023-03-13T15:40:51;7.50;99.90
21259;DHT22;10787;53.364;-1.480;2023-03-13T15:43:19;7.40;99.90
21259;DHT22;10787;53.364;-1.480;2023-03-13T15:45:45;7.40;99.90
21259;DHT22;10787;53.364;-1.480;2023-03-13T15:48:23;7.60;99.90
21259;DHT22;10787;53.364;-1.480;2023-03-13T15:51:08;7.70;99.90
21259;DHT22;10787;53.364;-1.480;2023-03-13T15:53:35;7.70;99.90
21259;DHT22;10787;53.364;-1.480;2023-03-13T15:56:08;7.80;99.90
21259;DHT22;10787;53.364;-1.480;2023-03-13T15:58:36;7.90;99.90
21259;DHT22;10787;53.364;-1.480;2023-03-13T16:01:02;7.80;99.90
21259;DHT22;10787;53.364;-1.480;2023-03-13T16:03:27;7.80;99.90
21259;DHT22;10787;53.364;-1.480;2023-03-13T16:05:54;7.80;99.90
21259;DHT22;10787;53.364;-1.480;2023-03-13T16:08:27;8.30;99.90
21259;DHT22;10787;53.364;-1.480;2023-03-13T16:10:54;8.50;99.90
21259;DHT22;10787;53.364;-1.480;2023-03-13T16:13:20;8.60;99.90
21259;DHT22;10787;53.364;-1.480;2023-03-13T16:15:46;8.60;99.90
21259;DHT22;10787;53.364;-1.480;2023-03-13T16:18:21;8.60;99.90
21259;DHT22;10787;53.364;-1.480;2023-03-13T16:20:47;8.60;99.90
21259;DHT22;10787;53.364;-1.480;2023-03-13T16:23:14;8.70;99.90
21259;DHT22;10787;53.364;-1.480;2023-03-13T16:25:41;8.70;99.90
21259;DHT22;10787;53.364;-1.480;2023-03-13T16:28:10;8.70;99.90
21259;DHT22;10787;53.364;-1.480;2023-03-13T16:30:37;8.70;99.90
21259;DHT22;10787;53.364;-1.480;2023-03-13T16:33:06;8.60;99.90
21259;DHT22;10787;53.364;-1.480;2023-03-13T16:35:32;8.60;99.90
21259;DHT22;10787;53.364;-1.480;2023-03-13T16:37:58;8.60;99.90
21259;DHT22;10787;53.364;-1.480;2023-03-13T16:40:32;8.60;99.90
21259;DHT22;10787;53.364;-1.480;2023-03-13T16:42:58;8.60;99.90
21259;DHT22;10787;53.364;-1.480;2023-03-13T16:45:24;8.50;99.90
21259;DHT22;10787;53.364;-1.480;2023-03-13T16:47:50;8.50;99.90
21259;DHT22;10787;53.364;-1.480;2023-03-13T16:50:31;8.50;99.90
21259;DHT22;10787;53.364;-1.480;2023-03-13T16:52:57;8.50;99.90
21259;DHT22;10787;53.364;-1.480;2023-03-13T16:55:24;8.50;99.90
21259;DHT22;10787;53.364;-1.480;2023-03-13T16:57:56;8.40;99.90
21259;DHT22;10787;53.364;-1.480;2023-03-13T17:00:24;8.40;99.90
21259;DHT22;10787;53.364;-1.480;2023-03-13T17:02:50;8.30;99.90
21259;DHT22;10787;53.364;-1.480;2023-03-13T17:05:16;8.30;99.90
21259;DHT22;10787;53.364;-1.480;2023-03-13T17:07:44;8.20;99.90
21259;DHT22;10787;53.364;-1.480;2023-03-13T17:10:20;8.20;99.90
21259;DHT22;10787;53.364;-1.480;2023-03-13T17:12:47;8.10;99.90
21259;DHT22;10787;53.364;-1.480;2023-03-13T17:15:13;8.10;99.90
21259;DHT22;10787;53.364;-1.480;2023-03-13T17:17:39;8.10;99.90